Terminal Aerodrome Forecast
Issued by NWS Sioux Falls, SD

Home | Current Version | Previous Version | Text Only | Print | Product List | Glossary On
Versions: 1 2 3 4 5 6 7 8 9 10 11 12 13 14 15 16 17 18 19 20 21 22 23 24 25 26 27 28 29 30 31 32 33 34 35 36 37 38
000
FTUS43 KFSD 282330
TAFSUX
TAF
KSUX 282330Z 2900/2924 01010KT P6SM BKN010
     FM290400 01006KT P6SM SCT012
     FM290900 36005KT 4SM BR SKC
      TEMPO 2910/2914 2SM BR SCT005
     FM291600 02004KT P6SM SCT025
     FM292100 10006KT P6SM SCT030=

USA.gov is the U.S. government's official web portal to all federal, state and local government web resources and services.